sensor_id;sensor_type;location;lat;lon;timestamp;temperature;humidity
5899;DHT22;2975;50.956;6.962;2023-03-01T00:01:22;0.20;98.90
5899;DHT22;2975;50.956;6.962;2023-03-01T00:03:48;0.10;99.00
5899;DHT22;2975;50.956;6.962;2023-03-01T00:06:14;0.10;99.60
5899;DHT22;2975;50.956;6.962;2023-03-01T00:08:40;0.00;99.90
5899;DHT22;2975;50.956;6.962;2023-03-01T00:11:23;-0.10;99.90
5899;DHT22;2975;50.956;6.962;2023-03-01T00:13:51;-0.30;99.90
5899;DHT22;2975;50.956;6.962;2023-03-01T00:16:23;-0.40;99.90
5899;DHT22;2975;50.956;6.962;2023-03-01T00:18:49;-0.40;99.90
5899;DHT22;2975;50.956;6.962;2023-03-01T00:21:16;-0.40;99.90
5899;DHT22;2975;50.956;6.962;2023-03-01T00:23:42;-0.50;99.90
5899;DHT22;2975;50.956;6.962;2023-03-01T00:26:10;-0.50;99.90
5899;DHT22;2975;50.956;6.962;2023-03-01T00:28:36;-0.50;99.90
5899;DHT22;2975;50.956;6.962;2023-03-01T00:31:07;-0.50;99.90
5899;DHT22;2975;50.956;6.962;2023-03-01T00:33:33;-0.60;99.90
5899;DHT22;2975;50.956;6.962;2023-03-01T00:36:00;-0.60;99.90
5899;DHT22;2975;50.956;6.962;2023-03-01T00:38:26;-0.60;99.90
5899;DHT22;2975;50.956;6.962;2023-03-01T00:40:52;-0.70;99.90
5899;DHT22;2975;50.956;6.962;2023-03-01T00:43:18;-0.70;99.90
5899;DHT22;2975;50.956;6.962;2023-03-01T00:45:44;-0.60;99.90
5899;DHT22;2975;50.956;6.962;2023-03-01T00:48:09;-0.70;99.90
5899;DHT22;2975;50.956;6.962;2023-03-01T00:50:35;-0.70;99.90
5899;DHT22;2975;50.956;6.962;2023-03-01T00:53:00;-0.80;99.90
5899;DHT22;2975;50.956;6.962;2023-03-01T00:55:26;-0.80;99.90
5899;DHT22;2975;50.956;6.962;2023-03-01T00:57:52;-0.80;99.90
5899;DHT22;2975;50.956;6.962;2023-03-01T01:00:19;-0.80;99.90
5899;DHT22;2975;50.956;6.962;2023-03-01T01:02:45;-0.80;99.90
5899;DHT22;2975;50.956;6.962;2023-03-01T01:05:11;-0.70;99.90
5899;DHT22;2975;50.956;6.962;2023-03-01T01:07:37;-0.60;99.90
5899;DHT22;2975;50.956;6.962;2023-03-01T01:10:03;-0.50;99.90
5899;DHT22;2975;50.956;6.962;2023-03-01T01:12:29;-0.40;99.90
5899;DHT22;2975;50.956;6.962;2023-03-01T01:14:54;-0.50;99.90
5899;DHT22;2975;50.956;6.962;2023-03-01T01:17:20;-0.50;99.90
5899;DHT22;2975;50.956;6.962;2023-03-01T01:19:46;-0.60;99.90
5899;DHT22;2975;50.956;6.962;2023-03-01T01:22:11;-0.60;99.90
5899;DHT22;2975;50.956;6.962;2023-03-01T01:24:37;-0.60;99.90
5899;DHT22;2975;50.956;6.962;2023-03-01T01:27:02;-0.60;99.90
5899;DHT22;2975;50.956;6.962;2023-03-01T01:29:28;-0.70;99.90
5899;DHT22;2975;50.956;6.962;2023-03-01T01:31:54;-0.70;99.90
5899;DHT22;2975;50.956;6.962;2023-03-01T01:34:21;-0.80;99.90
5899;DHT22;2975;50.956;6.962;2023-03-01T01:36:52;-0.80;99.90
5899;DHT22;2975;50.956;6.962;2023-03-01T01:39:19;-0.70;99.90
5899;DHT22;2975;50.956;6.962;2023-03-01T01:41:45;-0.60;99.90
5899;DHT22;2975;50.956;6.962;2023-03-01T01:44:18;-0.60;99.90
5899;DHT22;2975;50.956;6.962;2023-03-01T01:46:54;-0.60;99.90
5899;DHT22;2975;50.956;6.962;2023-03-01T01:49:43;-0.70;99.90
5899;DHT22;2975;50.956;6.962;2023-03-01T01:52:14;-0.70;99.90
5899;DHT22;2975;50.956;6.962;2023-03-01T01:54:49;-0.80;99.90
5899;DHT22;2975;50.956;6.962;2023-03-01T01:57:19;-0.80;99.90
5899;DHT22;2975;50.956;6.962;2023-03-01T01:59:51;-1.00;99.90
5899;DHT22;2975;50.956;6.962;2023-03-01T02:02:18;-1.00;99.90
5899;DHT22;2975;50.956;6.962;2023-03-01T02:04:44;-0.90;99.90
5899;DHT22;2975;50.956;6.962;2023-03-01T02:07:21;-0.90;99.90
5899;DHT22;2975;50.956;6.962;2023-03-01T02:09:50;-1.00;99.90
5899;DHT22;2975;50.956;6.962;2023-03-01T02:12:19;-1.00;99.90
5899;DHT22;2975;50.956;6.962;2023-03-01T02:14:45;-1.00;99.90
5899;DHT22;2975;50.956;6.962;2023-03-01T02:17:13;-1.10;99.90
5899;DHT22;2975;50.956;6.962;2023-03-01T02:22:31;-1.20;99.90
5899;DHT22;2975;50.956;6.962;2023-03-01T02:27:45;-1.30;99.90
5899;DHT22;2975;50.956;6.962;2023-03-01T02:30:13;-1.30;99.90
5899;DHT22;2975;50.956;6.962;2023-03-01T02:32:40;-1.30;99.90
5899;DHT22;2975;50.956;6.962;2023-03-01T02:35:12;-1.40;99.90
5899;DHT22;2975;50.956;6.962;2023-03-01T02:37:39;-1.40;99.90
5899;DHT22;2975;50.956;6.962;2023-03-01T02:40:09;-1.50;99.90
5899;DHT22;2975;50.956;6.962;2023-03-01T02:43:00;-1.50;99.90
5899;DHT22;2975;50.956;6.962;2023-03-01T02:45:26;-1.50;99.90
5899;DHT22;2975;50.956;6.962;2023-03-01T02:47:56;-1.50;99.90
5899;DHT22;2975;50.956;6.962;2023-03-01T02:50:34;-1.40;99.90
5899;DHT22;2975;50.956;6.962;2023-03-01T02:53:13;-1.30;99.90
5899;DHT22;2975;50.956;6.962;2023-03-01T02:55:40;-1.10;99.90
5899;DHT22;2975;50.956;6.962;2023-03-01T02:58:07;-1.00;99.90
5899;DHT22;2975;50.956;6.962;2023-03-01T03:00:38;-0.90;99.90
5899;DHT22;2975;50.956;6.962;2023-03-01T03:03:06;-1.00;99.90
5899;DHT22;2975;50.956;6.962;2023-03-01T03:05:32;-1.10;99.90
5899;DHT22;2975;50.956;6.962;2023-03-01T03:08:00;-1.10;99.90
5899;DHT22;2975;50.956;6.962;2023-03-01T03:10:29;-1.20;99.90
5899;DHT22;2975;50.956;6.962;2023-03-01T03:13:04;-1.30;99.90
5899;DHT22;2975;50.956;6.962;2023-03-01T03:15:30;-1.30;99.90
5899;DHT22;2975;50.956;6.962;2023-03-01T03:17:58;-1.30;99.90
5899;DHT22;2975;50.956;6.962;2023-03-01T03:20:26;-1.30;99.90
5899;DHT22;2975;50.956;6.962;2023-03-01T03:22:53;-1.30;99.90
5899;DHT22;2975;50.956;6.962;2023-03-01T03:25:20;-1.20;99.90
5899;DHT22;2975;50.956;6.962;2023-03-01T03:27:48;-1.30;99.90
5899;DHT22;2975;50.956;6.962;2023-03-01T03:30:17;-1.20;99.90
5899;DHT22;2975;50.956;6.962;2023-03-01T03:32:45;-1.20;99.90
5899;DHT22;2975;50.956;6.962;2023-03-01T03:35:22;-1.20;99.90
5899;DHT22;2975;50.956;6.962;2023-03-01T03:37:49;-1.30;99.90
5899;DHT22;2975;50.956;6.962;2023-03-01T03:42:54;-1.30;99.90
5899;DHT22;2975;50.956;6.962;2023-03-01T03:45:20;-1.30;99.90
5899;DHT22;2975;50.956;6.962;2023-03-01T03:47:46;-1.40;99.90
5899;DHT22;2975;50.956;6.962;2023-03-01T03:50:13;-1.50;99.90
5899;DHT22;2975;50.956;6.962;2023-03-01T03:52:39;-1.60;99.90
5899;DHT22;2975;50.956;6.962;2023-03-01T03:55:06;-1.60;99.90
5899;DHT22;2975;50.956;6.962;2023-03-01T03:57:40;-1.70;99.90
5899;DHT22;2975;50.956;6.962;2023-03-01T04:00:08;-1.80;99.90
5899;DHT22;2975;50.956;6.962;2023-03-01T04:02:45;-1.80;99.90
5899;DHT22;2975;50.956;6.962;2023-03-01T04:05:13;-1.80;99.90
5899;DHT22;2975;50.956;6.962;2023-03-01T04:07:41;-1.90;99.90
5899;DHT22;2975;50.956;6.962;2023-03-01T04:10:10;-1.90;99.90
5899;DHT22;2975;50.956;6.962;2023-03-01T04:12:36;-1.90;99.90
5899;DHT22;2975;50.956;6.962;2023-03-01T04:15:03;-1.80;99.90
5899;DHT22;2975;50.956;6.962;2023-03-01T04:17:42;-1.80;99.90
5899;DHT22;2975;50.956;6.962;2023-03-01T04:20:16;-1.80;99.90
5899;DHT22;2975;50.956;6.962;2023-03-01T04:22:43;-1.70;99.90
5899;DHT22;2975;50.956;6.962;2023-03-01T04:25:12;-1.80;99.90
5899;DHT22;2975;50.956;6.962;2023-03-01T04:27:40;-1.80;99.90
5899;DHT22;2975;50.956;6.962;2023-03-01T04:30:07;-1.80;99.90
5899;DHT22;2975;50.956;6.962;2023-03-01T04:32:32;-1.70;99.90
5899;DHT22;2975;50.956;6.962;2023-03-01T04:34:58;-1.70;99.90
5899;DHT22;2975;50.956;6.962;2023-03-01T04:37:24;-1.80;99.90
5899;DHT22;2975;50.956;6.962;2023-03-01T04:39:52;-1.70;99.90
5899;DHT22;2975;50.956;6.962;2023-03-01T04:42:18;-1.70;99.90
5899;DHT22;2975;50.956;6.962;2023-03-01T04:44:44;-1.80;99.90
5899;DHT22;2975;50.956;6.962;2023-03-01T04:47:10;-1.80;99.90
5899;DHT22;2975;50.956;6.962;2023-03-01T04:49:36;-1.90;99.90
5899;DHT22;2975;50.956;6.962;2023-03-01T04:52:02;-1.90;99.90
5899;DHT22;2975;50.956;6.962;2023-03-01T04:54:31;-2.00;99.90
5899;DHT22;2975;50.956;6.962;2023-03-01T04:56:58;-2.00;99.90
5899;DHT22;2975;50.956;6.962;2023-03-01T04:59:24;-2.00;99.90
5899;DHT22;2975;50.956;6.962;2023-03-01T05:01:50;-1.90;99.90
5899;DHT22;2975;50.956;6.962;2023-03-01T05:04:16;-1.80;99.90
5899;DHT22;2975;50.956;6.962;2023-03-01T05:06:42;-2.00;99.90
5899;DHT22;2975;50.956;6.962;2023-03-01T05:09:08;-2.10;99.90
5899;DHT22;2975;50.956;6.962;2023-03-01T05:11:33;-2.00;99.90
5899;DHT22;2975;50.956;6.962;2023-03-01T05:14:05;-2.00;99.90
5899;DHT22;2975;50.956;6.962;2023-03-01T05:16:31;-2.00;99.90
5899;DHT22;2975;50.956;6.962;2023-03-01T05:18:58;-2.00;99.90
5899;DHT22;2975;50.956;6.962;2023-03-01T05:21:24;-1.70;99.90
5899;DHT22;2975;50.956;6.962;2023-03-01T05:23:51;-1.60;99.90
5899;DHT22;2975;50.956;6.962;2023-03-01T05:26:19;-1.50;99.90
5899;DHT22;2975;50.956;6.962;2023-03-01T05:28:47;-1.30;99.90
5899;DHT22;2975;50.956;6.962;2023-03-01T05:31:13;-1.30;99.90
5899;DHT22;2975;50.956;6.962;2023-03-01T05:33:40;-1.30;99.90
5899;DHT22;2975;50.956;6.962;2023-03-01T05:36:09;-1.30;99.90
5899;DHT22;2975;50.956;6.962;2023-03-01T05:38:35;-1.20;99.90
5899;DHT22;2975;50.956;6.962;2023-03-01T05:41:02;-1.20;99.90
5899;DHT22;2975;50.956;6.962;2023-03-01T05:43:31;-1.30;99.90
5899;DHT22;2975;50.956;6.962;2023-03-01T05:45:59;-1.40;99.90
5899;DHT22;2975;50.956;6.962;2023-03-01T05:48:25;-1.50;99.90
5899;DHT22;2975;50.956;6.962;2023-03-01T05:50:51;-1.50;99.90
5899;DHT22;2975;50.956;6.962;2023-03-01T05:53:19;-1.50;99.90
5899;DHT22;2975;50.956;6.962;2023-03-01T05:55:46;-1.60;99.90
5899;DHT22;2975;50.956;6.962;2023-03-01T05:58:18;-1.80;99.90
5899;DHT22;2975;50.956;6.962;2023-03-01T06:00:45;-1.90;99.90
5899;DHT22;2975;50.956;6.962;2023-03-01T06:03:12;-2.00;99.90
5899;DHT22;2975;50.956;6.962;2023-03-01T06:05:39;-2.00;99.90
5899;DHT22;2975;50.956;6.962;2023-03-01T06:08:06;-2.10;99.90
5899;DHT22;2975;50.956;6.962;2023-03-01T06:10:31;-2.10;99.90
5899;DHT22;2975;50.956;6.962;2023-03-01T06:12:57;-1.90;99.90
5899;DHT22;2975;50.956;6.962;2023-03-01T06:15:24;-1.90;99.90
5899;DHT22;2975;50.956;6.962;2023-03-01T06:17:50;-1.90;99.90
5899;DHT22;2975;50.956;6.962;2023-03-01T06:20:22;-1.80;99.90
5899;DHT22;2975;50.956;6.962;2023-03-01T06:22:48;-1.80;99.90
5899;DHT22;2975;50.956;6.962;2023-03-01T06:25:17;-1.80;99.90
5899;DHT22;2975;50.956;6.962;2023-03-01T06:27:43;-1.90;99.90
5899;DHT22;2975;50.956;6.962;2023-03-01T06:30:10;-1.90;99.90
5899;DHT22;2975;50.956;6.962;2023-03-01T06:32:37;-1.80;99.90
5899;DHT22;2975;50.956;6.962;2023-03-01T06:35:04;-1.80;99.90
5899;DHT22;2975;50.956;6.962;2023-03-01T06:37:30;-1.80;99.90
5899;DHT22;2975;50.956;6.962;2023-03-01T06:39:55;-1.80;99.90
5899;DHT22;2975;50.956;6.962;2023-03-01T06:42:22;-1.80;99.90
5899;DHT22;2975;50.956;6.962;2023-03-01T06:44:47;-1.70;99.90
5899;DHT22;2975;50.956;6.962;2023-03-01T06:47:13;-1.70;99.90
5899;DHT22;2975;50.956;6.962;2023-03-01T06:49:39;-1.70;99.90
5899;DHT22;2975;50.956;6.962;2023-03-01T06:52:04;-1.60;99.90
5899;DHT22;2975;50.956;6.962;2023-03-01T06:54:30;-1.60;99.90
5899;DHT22;2975;50.956;6.962;2023-03-01T06:56:55;-1.60;99.90
5899;DHT22;2975;50.956;6.962;2023-03-01T06:59:21;-1.60;99.90
5899;DHT22;2975;50.956;6.962;2023-03-01T07:01:46;-1.50;99.90
5899;DHT22;2975;50.956;6.962;2023-03-01T07:04:12;-1.50;99.90
5899;DHT22;2975;50.956;6.962;2023-03-01T07:06:38;-1.40;99.90
5899;DHT22;2975;50.956;6.962;2023-03-01T07:09:04;-1.40;99.90
5899;DHT22;2975;50.956;6.962;2023-03-01T07:11:29;-1.30;99.90
5899;DHT22;2975;50.956;6.962;2023-03-01T07:13:55;-1.30;99.90
5899;DHT22;2975;50.956;6.962;2023-03-01T07:16:21;-1.20;99.90
5899;DHT22;2975;50.956;6.962;2023-03-01T07:18:47;-1.10;99.90
5899;DHT22;2975;50.956;6.962;2023-03-01T07:21:14;-1.00;99.90
5899;DHT22;2975;50.956;6.962;2023-03-01T07:23:40;-1.00;99.90
5899;DHT22;2975;50.956;6.962;2023-03-01T07:26:05;-0.90;99.90
5899;DHT22;2975;50.956;6.962;2023-03-01T07:28:31;-0.80;99.90
5899;DHT22;2975;50.956;6.962;2023-03-01T07:31:02;-0.80;99.90
5899;DHT22;2975;50.956;6.962;2023-03-01T07:33:28;-0.80;99.90
5899;DHT22;2975;50.956;6.962;2023-03-01T07:36:01;-0.70;99.90
5899;DHT22;2975;50.956;6.962;2023-03-01T07:38:28;-0.60;99.90
5899;DHT22;2975;50.956;6.962;2023-03-01T07:40:57;-0.50;99.90
5899;DHT22;2975;50.956;6.962;2023-03-01T07:43:23;-0.40;99.90
5899;DHT22;2975;50.956;6.962;2023-03-01T07:45:48;-0.40;99.90
5899;DHT22;2975;50.956;6.962;2023-03-01T07:48:14;-0.30;99.90
5899;DHT22;2975;50.956;6.962;2023-03-01T07:50:42;-0.20;99.90
5899;DHT22;2975;50.956;6.962;2023-03-01T07:53:09;-0.10;99.90
5899;DHT22;2975;50.956;6.962;2023-03-01T07:55:36;-0.10;99.90
5899;DHT22;2975;50.956;6.962;2023-03-01T07:58:01;0.10;99.90
5899;DHT22;2975;50.956;6.962;2023-03-01T08:00:27;0.20;99.90
5899;DHT22;2975;50.956;6.962;2023-03-01T08:02:52;0.20;99.60
5899;DHT22;2975;50.956;6.962;2023-03-01T08:05:18;0.20;99.20
5899;DHT22;2975;50.956;6.962;2023-03-01T08:07:44;0.20;99.20
5899;DHT22;2975;50.956;6.962;2023-03-01T08:10:10;0.30;99.60
5899;DHT22;2975;50.956;6.962;2023-03-01T08:12:36;0.60;99.10
5899;DHT22;2975;50.956;6.962;2023-03-01T08:15:01;0.70;98.70
5899;DHT22;2975;50.956;6.962;2023-03-01T08:17:27;0.80;98.60
5899;DHT22;2975;50.956;6.962;2023-03-01T08:19:53;0.80;97.60
5899;DHT22;2975;50.956;6.962;2023-03-01T08:22:18;0.80;97.60
5899;DHT22;2975;50.956;6.962;2023-03-01T08:24:44;0.90;97.50
5899;DHT22;2975;50.956;6.962;2023-03-01T08:27:09;1.00;96.90
5899;DHT22;2975;50.956;6.962;2023-03-01T08:29:35;1.10;97.00
5899;DHT22;2975;50.956;6.962;2023-03-01T08:32:01;1.20;96.40
5899;DHT22;2975;50.956;6.962;2023-03-01T08:34:26;1.20;96.50
5899;DHT22;2975;50.956;6.962;2023-03-01T08:36:52;1.20;96.70
5899;DHT22;2975;50.956;6.962;2023-03-01T08:39:19;1.20;96.40
5899;DHT22;2975;50.956;6.962;2023-03-01T08:41:46;1.30;96.50
5899;DHT22;2975;50.956;6.962;2023-03-01T08:44:13;1.50;96.00
5899;DHT22;2975;50.956;6.962;2023-03-01T08:46:40;1.50;95.60
5899;DHT22;2975;50.956;6.962;2023-03-01T08:49:07;1.60;95.30
5899;DHT22;2975;50.956;6.962;2023-03-01T08:51:33;1.70;95.30
5899;DHT22;2975;50.956;6.962;2023-03-01T08:54:06;1.90;95.20
5899;DHT22;2975;50.956;6.962;2023-03-01T08:56:33;1.90;95.20
5899;DHT22;2975;50.956;6.962;2023-03-01T08:58:59;1.90;95.10
5899;DHT22;2975;50.956;6.962;2023-03-01T09:01:24;2.20;94.30
5899;DHT22;2975;50.956;6.962;2023-03-01T09:03:50;2.30;94.10
5899;DHT22;2975;50.956;6.962;2023-03-01T09:06:15;2.50;93.50
5899;DHT22;2975;50.956;6.962;2023-03-01T09:08:44;2.60;93.00
5899;DHT22;2975;50.956;6.962;2023-03-01T09:11:12;2.60;92.90
5899;DHT22;2975;50.956;6.962;2023-03-01T09:13:38;2.70;92.90
5899;DHT22;2975;50.956;6.962;2023-03-01T09:16:06;2.80;93.00
5899;DHT22;2975;50.956;6.962;2023-03-01T09:18:33;2.80;93.00
5899;DHT22;2975;50.956;6.962;2023-03-01T09:21:08;2.90;92.50
5899;DHT22;2975;50.956;6.962;2023-03-01T09:23:35;3.00;92.50
5899;DHT22;2975;50.956;6.962;2023-03-01T09:26:02;3.10;92.00
5899;DHT22;2975;50.956;6.962;2023-03-01T09:28:27;3.20;91.80
5899;DHT22;2975;50.956;6.962;2023-03-01T09:30:53;3.10;91.30
5899;DHT22;2975;50.956;6.962;2023-03-01T09:33:19;3.10;91.60
5899;DHT22;2975;50.956;6.962;2023-03-01T09:35:44;3.10;91.80
5899;DHT22;2975;50.956;6.962;2023-03-01T09:38:13;3.20;91.20
5899;DHT22;2975;50.956;6.962;2023-03-01T09:40:43;3.30;91.00
5899;DHT22;2975;50.956;6.962;2023-03-01T09:43:21;3.40;90.80
5899;DHT22;2975;50.956;6.962;2023-03-01T09:45:49;3.30;90.60
5899;DHT22;2975;50.956;6.962;2023-03-01T09:48:19;3.30;90.80
5899;DHT22;2975;50.956;6.962;2023-03-01T09:50:48;3.40;90.50
5899;DHT22;2975;50.956;6.962;2023-03-01T09:53:16;3.40;90.70
5899;DHT22;2975;50.956;6.962;2023-03-01T09:55:54;3.40;90.50
5899;DHT22;2975;50.956;6.962;2023-03-01T10:04:48;3.60;90.80
5899;DHT22;2975;50.956;6.962;2023-03-01T10:07:45;3.80;90.10
5899;DHT22;2975;50.956;6.962;2023-03-01T10:10:32;3.80;90.10
5899;DHT22;2975;50.956;6.962;2023-03-01T10:13:02;3.70;90.00
5899;DHT22;2975;50.956;6.962;2023-03-01T10:15:40;3.80;89.30
5899;DHT22;2975;50.956;6.962;2023-03-01T10:18:18;3.80;89.70
5899;DHT22;2975;50.956;6.962;2023-03-01T10:21:02;3.90;89.00
5899;DHT22;2975;50.956;6.962;2023-03-01T10:23:31;4.00;89.00
5899;DHT22;2975;50.956;6.962;2023-03-01T10:26:17;4.10;88.90
5899;DHT22;2975;50.956;6.962;2023-03-01T10:29:05;4.10;88.00
5899;DHT22;2975;50.956;6.962;2023-03-01T10:34:10;4.10;89.10
5899;DHT22;2975;50.956;6.962;2023-03-01T10:36:38;4.10;88.90
5899;DHT22;2975;50.956;6.962;2023-03-01T10:39:12;4.10;89.00
5899;DHT22;2975;50.956;6.962;2023-03-01T10:41:55;4.20;88.00
5899;DHT22;2975;50.956;6.962;2023-03-01T10:47:32;4.30;87.10
5899;DHT22;2975;50.956;6.962;2023-03-01T10:50:00;4.40;86.80
5899;DHT22;2975;50.956;6.962;2023-03-01T10:52:34;4.30;86.30
5899;DHT22;2975;50.956;6.962;2023-03-01T10:58:24;4.60;86.20
5899;DHT22;2975;50.956;6.962;2023-03-01T11:00:54;4.50;85.90
5899;DHT22;2975;50.956;6.962;2023-03-01T11:03:26;4.40;85.80
5899;DHT22;2975;50.956;6.962;2023-03-01T11:05:53;4.40;85.80
5899;DHT22;2975;50.956;6.962;2023-03-01T11:11:14;4.60;86.00
5899;DHT22;2975;50.956;6.962;2023-03-01T11:13:57;4.60;85.80
5899;DHT22;2975;50.956;6.962;2023-03-01T11:16:37;4.60;85.20
5899;DHT22;2975;50.956;6.962;2023-03-01T11:21:59;4.70;85.10
5899;DHT22;2975;50.956;6.962;2023-03-01T11:26:55;4.80;84.90
5899;DHT22;2975;50.956;6.962;2023-03-01T11:29:30;4.90;84.30
5899;DHT22;2975;50.956;6.962;2023-03-01T11:32:00;5.00;84.30
5899;DHT22;2975;50.956;6.962;2023-03-01T11:40:13;5.20;83.00
5899;DHT22;2975;50.956;6.962;2023-03-01T11:45:58;5.30;82.20
5899;DHT22;2975;50.956;6.962;2023-03-01T11:51:24;5.40;81.70
5899;DHT22;2975;50.956;6.962;2023-03-01T11:54:06;5.40;81.10
5899;DHT22;2975;50.956;6.962;2023-03-01T11:56:41;5.40;81.40
5899;DHT22;2975;50.956;6.962;2023-03-01T11:59:38;5.40;81.60
5899;DHT22;2975;50.956;6.962;2023-03-01T12:02:37;5.40;82.40
5899;DHT22;2975;50.956;6.962;2023-03-01T12:05:24;5.40;82.70
5899;DHT22;2975;50.956;6.962;2023-03-01T12:10:37;5.60;81.80
5899;DHT22;2975;50.956;6.962;2023-03-01T12:13:51;5.70;81.80
5899;DHT22;2975;50.956;6.962;2023-03-01T12:30:26;5.70;80.70
5899;DHT22;2975;50.956;6.962;2023-03-01T12:39:33;6.00;80.50
5899;DHT22;2975;50.956;6.962;2023-03-01T12:42:20;6.00;80.00
5899;DHT22;2975;50.956;6.962;2023-03-01T12:52:49;6.40;78.90
5899;DHT22;2975;50.956;6.962;2023-03-01T12:55:33;6.50;78.40
5899;DHT22;2975;50.956;6.962;2023-03-01T13:09:27;6.60;76.80
5899;DHT22;2975;50.956;6.962;2023-03-01T13:11:56;6.70;76.80
5899;DHT22;2975;50.956;6.962;2023-03-01T13:16:49;6.90;77.60
5899;DHT22;2975;50.956;6.962;2023-03-01T13:21:44;7.00;77.10
5899;DHT22;2975;50.956;6.962;2023-03-01T13:24:42;7.10;76.70
5899;DHT22;2975;50.956;6.962;2023-03-01T13:29:55;7.30;74.80
5899;DHT22;2975;50.956;6.962;2023-03-01T13:32:28;7.40;75.00
5899;DHT22;2975;50.956;6.962;2023-03-01T13:37:43;7.40;74.40
5899;DHT22;2975;50.956;6.962;2023-03-01T13:42:50;7.50;73.20
5899;DHT22;2975;50.956;6.962;2023-03-01T13:45:40;7.50;73.20
5899;DHT22;2975;50.956;6.962;2023-03-01T13:48:22;7.50;73.30
5899;DHT22;2975;50.956;6.962;2023-03-01T13:50:53;7.60;72.70
5899;DHT22;2975;50.956;6.962;2023-03-01T13:53:23;7.60;73.10
5899;DHT22;2975;50.956;6.962;2023-03-01T13:55:52;7.60;72.50
5899;DHT22;2975;50.956;6.962;2023-03-01T13:58:30;7.70;71.60
5899;DHT22;2975;50.956;6.962;2023-03-01T14:01:05;7.70;71.30
5899;DHT22;2975;50.956;6.962;2023-03-01T14:03:33;7.60;72.10
5899;DHT22;2975;50.956;6.962;2023-03-01T14:06:04;7.60;71.80
5899;DHT22;2975;50.956;6.962;2023-03-01T14:08:36;7.60;71.40
5899;DHT22;2975;50.956;6.962;2023-03-01T14:19:10;7.80;69.20
5899;DHT22;2975;50.956;6.962;2023-03-01T14:21:39;7.80;68.90
5899;DHT22;2975;50.956;6.962;2023-03-01T14:24:05;7.80;68.50
5899;DHT22;2975;50.956;6.962;2023-03-01T14:26:33;7.80;68.80
5899;DHT22;2975;50.956;6.962;2023-03-01T14:29:00;7.90;69.00
5899;DHT22;2975;50.956;6.962;2023-03-01T14:31:31;7.90;68.90
5899;DHT22;2975;50.956;6.962;2023-03-01T14:33:58;8.00;69.00
5899;DHT22;2975;50.956;6.962;2023-03-01T14:36:29;8.10;68.90
5899;DHT22;2975;50.956;6.962;2023-03-01T14:38:55;8.00;69.50
5899;DHT22;2975;50.956;6.962;2023-03-01T14:41:23;8.10;70.40
5899;DHT22;2975;50.956;6.962;2023-03-01T14:43:55;8.00;72.10
5899;DHT22;2975;50.956;6.962;2023-03-01T14:46:26;8.00;73.60
5899;DHT22;2975;50.956;6.962;2023-03-01T14:49:19;7.80;74.50
5899;DHT22;2975;50.956;6.962;2023-03-01T14:52:04;7.80;75.30
5899;DHT22;2975;50.956;6.962;2023-03-01T14:54:42;7.80;75.60
5899;DHT22;2975;50.956;6.962;2023-03-01T14:57:16;7.80;75.60
5899;DHT22;2975;50.956;6.962;2023-03-01T14:59:42;7.60;76.00
5899;DHT22;2975;50.956;6.962;2023-03-01T15:02:14;7.60;77.00
5899;DHT22;2975;50.956;6.962;2023-03-01T15:05:04;7.60;77.50
5899;DHT22;2975;50.956;6.962;2023-03-01T15:07:36;7.60;77.50
5899;DHT22;2975;50.956;6.962;2023-03-01T15:10:04;7.60;77.50
5899;DHT22;2975;50.956;6.962;2023-03-01T15:12:40;7.60;77.80
5899;DHT22;2975;50.956;6.962;2023-03-01T15:15:38;7.60;78.10
5899;DHT22;2975;50.956;6.962;2023-03-01T15:18:22;7.60;78.50
5899;DHT22;2975;50.956;6.962;2023-03-01T15:20:49;7.60;77.60
5899;DHT22;2975;50.956;6.962;2023-03-01T15:23:29;7.50;77.50
5899;DHT22;2975;50.956;6.962;2023-03-01T15:25:56;7.50;77.20
5899;DHT22;2975;50.956;6.962;2023-03-01T15:28:48;7.50;77.20
5899;DHT22;2975;50.956;6.962;2023-03-01T15:31:52;7.50;77.20
5899;DHT22;2975;50.956;6.962;2023-03-01T15:34:23;7.50;77.30
5899;DHT22;2975;50.956;6.962;2023-03-01T15:36:50;7.50;77.50
5899;DHT22;2975;50.956;6.962;2023-03-01T15:39:34;7.40;77.30
5899;DHT22;2975;50.956;6.962;2023-03-01T15:42:13;7.40;77.40
5899;DHT22;2975;50.956;6.962;2023-03-01T15:44:42;7.30;77.40
5899;DHT22;2975;50.956;6.962;2023-03-01T15:47:30;7.30;77.60
5899;DHT22;2975;50.956;6.962;2023-03-01T15:49:58;7.30;77.10
5899;DHT22;2975;50.956;6.962;2023-03-01T15:52:40;7.30;77.10
5899;DHT22;2975;50.956;6.962;2023-03-01T15:55:28;7.30;77.00
5899;DHT22;2975;50.956;6.962;2023-03-01T16:00:29;7.20;77.30
5899;DHT22;2975;50.956;6.962;2023-03-01T16:02:55;7.20;77.30
5899;DHT22;2975;50.956;6.962;2023-03-01T16:05:31;7.20;77.30
5899;DHT22;2975;50.956;6.962;2023-03-01T16:07:57;7.10;77.20
5899;DHT22;2975;50.956;6.962;2023-03-01T16:10:24;7.10;77.20
5899;DHT22;2975;50.956;6.962;2023-03-01T16:12:51;7.10;77.00
5899;DHT22;2975;50.956;6.962;2023-03-01T16:15:28;7.20;77.30
5899;DHT22;2975;50.956;6.962;2023-03-01T16:17:54;7.10;77.00
5899;DHT22;2975;50.956;6.962;2023-03-01T16:20:20;7.10;76.90
5899;DHT22;2975;50.956;6.962;2023-03-01T16:22:46;7.10;77.20
5899;DHT22;2975;50.956;6.962;2023-03-01T16:25:14;7.00;76.80
5899;DHT22;2975;50.956;6.962;2023-03-01T16:27:48;7.00;77.20
5899;DHT22;2975;50.956;6.962;2023-03-01T16:30:16;6.90;77.20
5899;DHT22;2975;50.956;6.962;2023-03-01T16:32:44;6.90;77.80
5899;DHT22;2975;50.956;6.962;2023-03-01T16:35:11;6.90;78.00
5899;DHT22;2975;50.956;6.962;2023-03-01T16:37:38;6.90;78.00
5899;DHT22;2975;50.956;6.962;2023-03-01T16:40:06;6.80;77.70
5899;DHT22;2975;50.956;6.962;2023-03-01T16:42:36;6.80;77.60
5899;DHT22;2975;50.956;6.962;2023-03-01T16:45:02;6.80;77.30
5899;DHT22;2975;50.956;6.962;2023-03-01T16:47:28;6.70;77.20
5899;DHT22;2975;50.956;6.962;2023-03-01T16:49:55;6.60;77.80
5899;DHT22;2975;50.956;6.962;2023-03-01T16:52:22;6.60;77.80
5899;DHT22;2975;50.956;6.962;2023-03-01T16:54:47;6.50;77.90
5899;DHT22;2975;50.956;6.962;2023-03-01T16:57:13;6.40;77.80
5899;DHT22;2975;50.956;6.962;2023-03-01T16:59:39;6.40;78.20
5899;DHT22;2975;50.956;6.962;2023-03-01T17:02:08;6.40;78.00
5899;DHT22;2975;50.956;6.962;2023-03-01T17:04:35;6.40;78.00
5899;DHT22;2975;50.956;6.962;2023-03-01T17:07:00;6.40;78.30
5899;DHT22;2975;50.956;6.962;2023-03-01T17:09:26;6.30;77.90
5899;DHT22;2975;50.956;6.962;2023-03-01T17:11:51;6.30;78.30
5899;DHT22;2975;50.956;6.962;2023-03-01T17:14:17;6.20;78.80
5899;DHT22;2975;50.956;6.962;2023-03-01T17:16:43;6.20;78.60
5899;DHT22;2975;50.956;6.962;2023-03-01T17:19:10;6.10;78.30
5899;DHT22;2975;50.956;6.962;2023-03-01T17:21:36;6.00;78.90
5899;DHT22;2975;50.956;6.962;2023-03-01T17:24:02;5.90;79.10
5899;DHT22;2975;50.956;6.962;2023-03-01T17:26:28;5.90;79.20
5899;DHT22;2975;50.956;6.962;2023-03-01T17:28:55;5.80;79.00
5899;DHT22;2975;50.956;6.962;2023-03-01T17:31:22;5.80;78.80
5899;DHT22;2975;50.956;6.962;2023-03-01T17:33:47;5.80;78.90
5899;DHT22;2975;50.956;6.962;2023-03-01T17:36:14;5.80;79.00
5899;DHT22;2975;50.956;6.962;2023-03-01T17:38:41;5.70;79.00
5899;DHT22;2975;50.956;6.962;2023-03-01T17:41:06;5.60;79.10
5899;DHT22;2975;50.956;6.962;2023-03-01T17:43:32;5.60;79.50
5899;DHT22;2975;50.956;6.962;2023-03-01T17:45:59;5.50;79.50
5899;DHT22;2975;50.956;6.962;2023-03-01T17:48:25;5.50;79.70
5899;DHT22;2975;50.956;6.962;2023-03-01T17:50:50;5.40;79.90
5899;DHT22;2975;50.956;6.962;2023-03-01T17:53:16;5.40;80.10
5899;DHT22;2975;50.956;6.962;2023-03-01T17:55:43;5.40;80.30
5899;DHT22;2975;50.956;6.962;2023-03-01T17:58:11;5.40;80.50
5899;DHT22;2975;50.956;6.962;2023-03-01T18:00:37;5.30;80.60
5899;DHT22;2975;50.956;6.962;2023-03-01T18:03:03;5.30;80.70
5899;DHT22;2975;50.956;6.962;2023-03-01T18:05:34;5.30;80.60
5899;DHT22;2975;50.956;6.962;2023-03-01T18:08:00;5.30;80.90
5899;DHT22;2975;50.956;6.962;2023-03-01T18:10:25;5.20;81.20
5899;DHT22;2975;50.956;6.962;2023-03-01T18:12:51;5.10;81.00
5899;DHT22;2975;50.956;6.962;2023-03-01T18:15:17;5.10;81.20